createdAt,value
2019-06-15T00:00:42.688Z,18.25
2019-06-15T00:01:42.700Z,18.25
2019-06-15T00:02:42.653Z,18.32
2019-06-15T00:03:42.643Z,18.32
2019-06-15T00:04:42.621Z,18.35
2019-06-15T00:05:42.609Z,18.35
2019-06-15T00:06:42.606Z,18.36
2019-06-15T00:07:42.577Z,18.35
2019-06-15T00:08:42.562Z,18.44
2019-06-15T00:09:42.547Z,18.42
2019-06-15T00:10:42.537Z,18.33
2019-06-15T00:11:42.547Z,18.44
2019-06-15T00:12:42.500Z,18.37
2019-06-15T00:13:42.484Z,18.37
2019-06-15T00:14:42.477Z,18.36
2019-06-15T00:15:42.463Z,18.36
2019-06-15T00:16:42.452Z,18.36
2019-06-15T00:17:42.423Z,18.29
2019-06-15T00:18:42.406Z,18.29
2019-06-15T00:19:42.398Z,18.23
2019-06-15T00:20:42.379Z,18.26
2019-06-15T00:21:42.378Z,18.18
2019-06-15T00:22:42.345Z,18.14
2019-06-15T00:23:42.331Z,18.18
2019-06-15T00:24:42.323Z,18.23
2019-06-15T00:25:42.320Z,18.21
2019-06-15T00:26:42.286Z,18.12
2019-06-15T00:27:42.270Z,18.08
2019-06-15T00:28:42.258Z,18.23
2019-06-15T00:29:42.238Z,18.20
2019-06-15T00:30:42.223Z,18.25
2019-06-15T00:31:42.219Z,18.33
2019-06-15T00:32:42.202Z,18.29
2019-06-15T00:33:42.177Z,18.21
2019-06-15T00:34:42.159Z,18.15
2019-06-15T00:35:42.160Z,18.14
2019-06-15T00:36:42.132Z,18.12
2019-06-15T00:37:42.115Z,18.08
2019-06-15T00:38:42.102Z,18.14
2019-06-15T00:39:42.085Z,18.08
2019-06-15T00:40:42.084Z,18.08
2019-06-15T00:41:42.052Z,18.10
2019-06-15T00:42:42.040Z,18.03
2019-06-15T00:43:42.025Z,18.00
2019-06-15T00:44:42.007Z,17.99
2019-06-15T00:45:42.007Z,17.97
2019-06-15T00:46:41.982Z,17.89
2019-06-15T00:47:41.961Z,17.96
2019-06-15T00:48:41.943Z,17.96
2019-06-15T00:49:41.931Z,17.93
2019-06-15T00:50:41.938Z,17.95
2019-06-15T00:51:41.901Z,17.96
2019-06-15T00:52:41.888Z,18.02
2019-06-15T00:53:41.868Z,17.96
2019-06-15T00:54:49.931Z,18.05
2019-06-15T00:55:41.843Z,17.99
2019-06-15T00:56:41.835Z,18.08
2019-06-15T00:57:41.812Z,17.97
2019-06-15T00:58:41.792Z,17.96
2019-06-15T00:59:41.776Z,17.90
2019-06-15T01:00:41.760Z,17.95
2019-06-15T01:01:41.762Z,17.86
2019-06-15T01:02:41.729Z,17.86
2019-06-15T01:03:41.712Z,17.86
2019-06-15T01:04:41.695Z,17.97
2019-06-15T01:05:41.716Z,17.93
2019-06-15T01:06:41.683Z,17.96
2019-06-15T01:07:41.652Z,17.96
2019-06-15T01:08:41.636Z,17.93
2019-06-15T01:09:41.623Z,17.96
2019-06-15T01:10:41.605Z,17.97
2019-06-15T01:11:41.607Z,17.97
2019-06-15T01:12:41.577Z,18.03
2019-06-15T01:13:41.561Z,17.99
2019-06-15T01:14:41.543Z,17.93
2019-06-15T01:15:41.528Z,17.96
2019-06-15T01:16:41.513Z,17.90
2019-06-15T01:17:41.510Z,17.92
2019-06-15T01:18:41.482Z,17.84
2019-06-15T01:19:41.466Z,17.89
2019-06-15T01:20:41.453Z,17.74
2019-06-15T01:21:41.432Z,17.72
2019-06-15T01:22:41.432Z,17.78
2019-06-15T01:23:41.404Z,17.84
2019-06-15T01:24:41.387Z,17.78
2019-06-15T01:25:41.371Z,17.78
2019-06-15T01:26:41.357Z,17.77
2019-06-15T01:27:41.356Z,17.79
2019-06-15T01:28:41.326Z,17.77
2019-06-15T01:29:41.311Z,17.77
2019-06-15T01:30:41.294Z,17.74
2019-06-15T01:31:41.280Z,17.81
2019-06-15T01:32:41.283Z,17.81
2019-06-15T01:33:41.250Z,17.74
2019-06-15T01:34:41.233Z,17.75
2019-06-15T01:35:41.217Z,17.81
2019-06-15T01:36:41.204Z,17.81
2019-06-15T01:37:41.186Z,17.72
2019-06-15T01:38:41.185Z,17.75
2019-06-15T01:39:41.155Z,17.70
2019-06-15T01:40:41.137Z,17.78
2019-06-15T01:41:41.127Z,17.70
2019-06-15T01:42:41.108Z,17.74
2019-06-15T01:43:41.106Z,17.75
2019-06-15T01:44:41.074Z,17.77
2019-06-15T01:45:41.061Z,17.79
2019-06-15T01:46:41.046Z,17.79
2019-06-15T01:47:41.029Z,17.79
2019-06-15T01:48:41.028Z,17.74
2019-06-15T01:49:40.997Z,17.82
2019-06-15T01:50:40.984Z,17.78
2019-06-15T01:51:40.968Z,17.64
2019-06-15T01:52:40.955Z,17.62
2019-06-15T01:53:40.949Z,17.66
2019-06-15T01:54:40.920Z,17.64
2019-06-15T01:55:40.905Z,17.62
2019-06-15T01:56:40.885Z,17.64
2019-06-15T01:57:40.873Z,17.66
2019-06-15T01:58:40.875Z,17.70
2019-06-15T01:59:40.843Z,17.71
2019-06-15T02:00:40.827Z,17.68
2019-06-15T02:01:40.815Z,17.68
2019-06-15T02:02:40.805Z,17.79
2019-06-15T02:03:40.780Z,17.77
2019-06-15T02:04:40.780Z,17.70
2019-06-15T02:05:40.747Z,17.78
2019-06-15T02:06:40.741Z,17.79
2019-06-15T02:07:40.718Z,17.81
2019-06-15T02:08:40.702Z,17.59
2019-06-15T02:09:40.715Z,17.59
2019-06-15T02:10:40.702Z,17.62
2019-06-15T05:02:43.058Z,18.54
2019-06-15T05:03:43.026Z,18.60
2019-06-15T05:04:43.076Z,18.55
2019-06-15T05:05:42.993Z,18.58
2019-06-15T05:06:42.972Z,18.69
2019-06-15T05:07:42.954Z,18.75
2019-06-15T05:08:42.939Z,18.60
2019-06-15T05:09:42.943Z,18.73
2019-06-15T05:10:42.906Z,18.82
2019-06-15T05:11:42.892Z,18.72
2019-06-15T05:12:42.873Z,18.73
2019-06-15T05:13:42.902Z,18.55
2019-06-15T05:14:42.858Z,18.67
2019-06-15T05:15:42.827Z,18.69
2019-06-15T05:16:42.810Z,18.63
2019-06-15T05:17:46.001Z,18.57
2019-06-15T05:18:42.791Z,18.62
2019-06-15T05:19:42.774Z,18.54
2019-06-15T05:20:42.765Z,18.48
2019-06-15T05:21:42.733Z,18.35
2019-06-15T06:20:04.108Z,18.85
2019-06-15T06:21:04.078Z,18.90
2019-06-15T06:22:04.060Z,18.90
2019-06-15T06:23:04.042Z,18.91
2019-06-15T06:24:04.040Z,18.99
2019-06-15T06:25:04.006Z,19.13
2019-06-15T06:26:03.987Z,19.19
2019-06-15T06:27:03.997Z,19.37
2019-06-15T06:28:03.953Z,19.46
2019-06-15T06:29:03.937Z,19.69
2019-06-15T06:30:03.939Z,19.62
2019-06-15T06:31:03.913Z,19.69
2019-06-15T06:32:03.889Z,19.84
2019-06-15T06:33:03.875Z,19.92
2019-06-15T06:34:03.862Z,19.99
2019-06-15T06:35:03.867Z,19.99
2019-06-15T06:36:06.224Z,20.05
2019-06-15T06:37:03.816Z,20.13
2019-06-15T06:38:03.809Z,20.17
2019-06-15T06:39:03.781Z,20.47
2019-06-15T06:40:03.766Z,20.59
2019-06-15T06:41:03.765Z,20.47
2019-06-15T06:42:03.737Z,20.48
2019-06-15T06:43:03.730Z,20.32
2019-06-15T06:44:03.708Z,20.16
2019-06-15T06:45:03.693Z,20.08
2019-06-15T06:46:03.694Z,19.98
2019-06-15T06:47:03.666Z,19.83
2019-06-15T06:48:03.653Z,19.80
2019-06-15T06:49:03.640Z,19.62
2019-06-15T06:50:03.625Z,19.80
2019-06-15T06:51:03.622Z,19.68
2019-06-15T06:52:03.592Z,19.56
2019-06-15T06:53:03.578Z,19.54
2019-06-15T06:54:03.567Z,19.65
2019-06-15T06:55:03.557Z,19.62
2019-06-15T06:56:03.550Z,19.74
2019-06-15T06:57:03.524Z,19.86
2019-06-15T06:58:03.506Z,20.20
2019-06-15T06:59:03.495Z,19.99
2019-06-15T07:00:03.484Z,20.05
2019-06-15T07:01:03.486Z,20.10
2019-06-15T07:02:03.473Z,20.26
2019-06-15T07:03:03.459Z,20.47
2019-06-15T07:04:03.422Z,20.33
2019-06-15T07:05:03.414Z,20.43
2019-06-15T07:06:03.400Z,21.22
2019-06-15T07:07:03.401Z,20.88
2019-06-15T07:08:03.378Z,20.77
2019-06-15T07:09:03.356Z,20.67
2019-06-15T07:10:03.344Z,20.38
2019-06-15T07:11:03.328Z,20.11
2019-06-15T07:12:03.362Z,20.06
2019-06-15T07:13:03.298Z,20.08
2019-06-15T07:14:03.284Z,20.23
2019-06-15T07:15:04.855Z,20.24
2019-06-15T07:16:03.258Z,20.26
2019-06-15T07:17:03.259Z,20.32
2019-06-15T07:18:03.233Z,20.28
2019-06-15T07:19:03.220Z,20.41
2019-06-15T07:20:03.218Z,20.54
2019-06-15T07:21:03.196Z,20.70
2019-06-15T07:22:03.194Z,20.62
2019-06-15T07:23:03.204Z,20.62
2019-06-15T07:24:03.285Z,20.92
2019-06-15T07:25:03.134Z,21.12
2019-06-15T07:26:03.121Z,21.19
2019-06-15T07:27:03.122Z,21.13
2019-06-15T07:28:07.994Z,21.12
2019-06-15T07:29:03.084Z,21.22
2019-06-15T07:30:03.068Z,21.29
2019-06-15T07:31:03.051Z,21.16
2019-06-15T07:32:03.065Z,20.99
2019-06-15T07:33:03.025Z,20.80
2019-06-15T07:34:03.015Z,20.95
2019-06-15T07:35:03.024Z,20.80
2019-06-15T07:36:03.042Z,20.91
2019-06-15T07:37:03.022Z,20.88
2019-06-15T07:38:02.969Z,20.99
2019-06-15T07:39:02.947Z,21.01
2019-06-15T07:40:02.933Z,20.99
2019-06-15T07:41:02.919Z,21.06
2019-06-15T07:42:02.907Z,20.99
2019-06-15T07:43:02.908Z,20.67
2019-06-15T07:50:44.357Z,21.09
2019-06-15T07:51:44.321Z,21.21
2019-06-15T07:52:44.326Z,21.52
2019-06-15T07:53:44.294Z,21.75
2019-06-15T07:54:44.280Z,22.05
2019-06-15T07:55:44.269Z,22.30
2019-06-15T07:56:44.255Z,22.52
2019-06-15T07:57:44.275Z,22.47
2019-06-15T07:58:44.226Z,22.73
2019-06-15T07:59:44.217Z,22.65
2019-06-15T08:00:44.204Z,22.80
2019-06-15T08:01:44.191Z,22.88
2019-06-15T08:02:44.175Z,22.94
2019-06-15T08:03:44.179Z,23.10
2019-06-15T08:04:44.153Z,22.92
2019-06-15T08:05:44.147Z,22.98
2019-06-15T08:06:44.134Z,22.85
2019-06-15T08:07:44.119Z,22.57
2019-06-15T08:08:44.128Z,22.46
2019-06-15T08:09:44.107Z,22.25
2019-06-15T08:10:44.093Z,22.07
2019-06-15T08:11:45.888Z,22.22
2019-06-15T08:12:44.058Z,22.07
2019-06-15T08:13:44.447Z,22.03
2019-06-15T08:14:44.034Z,22.10
2019-06-15T08:15:44.026Z,22.05
2019-06-15T08:16:44.023Z,22.02
2019-06-15T08:17:45.662Z,22.12
2019-06-15T08:18:44.015Z,22.24
2019-06-15T08:19:43.975Z,22.00
2019-06-15T08:20:43.962Z,21.98
2019-06-15T08:21:43.951Z,22.03
2019-06-15T08:22:43.943Z,21.86
2019-06-15T08:23:43.930Z,21.79
2019-06-15T08:24:43.929Z,21.56
2019-06-15T08:25:43.906Z,21.54
2019-06-15T08:26:43.890Z,21.54
2019-06-15T08:27:43.878Z,21.69
2019-06-15T08:28:43.897Z,21.69
2019-06-15T08:29:43.872Z,21.71
2019-06-15T08:30:43.843Z,21.69
2019-06-15T08:31:43.830Z,21.71
2019-06-15T08:32:43.824Z,21.67
2019-06-15T08:33:43.845Z,21.65
2019-06-15T08:34:43.832Z,21.68
2019-06-15T08:35:43.791Z,21.79
2019-06-15T08:36:51.543Z,22.00
2019-06-15T08:37:43.813Z,22.07
2019-06-15T08:38:43.746Z,22.02
2019-06-15T08:39:43.746Z,22.09
2019-06-15T08:40:43.721Z,22.00
2019-06-15T08:41:43.724Z,22.14
2019-06-15T08:42:43.699Z,21.96
2019-06-15T08:43:43.681Z,21.79
2019-06-15T08:44:43.698Z,21.69
2019-06-15T08:45:43.658Z,21.65
2019-06-15T08:46:43.646Z,21.72
2019-06-15T08:53:22.430Z,21.67
2019-06-15T08:54:22.404Z,21.77
2019-06-15T08:55:22.403Z,21.67
2019-06-15T08:56:22.373Z,21.56
2019-06-15T08:57:22.359Z,21.68
2019-06-15T08:58:22.346Z,21.74
2019-06-15T08:59:22.333Z,21.83
2019-06-15T09:00:22.346Z,21.82
2019-06-15T09:01:22.307Z,21.86
2019-06-15T09:02:22.293Z,21.90
2019-06-15T09:03:22.276Z,21.90
2019-06-15T09:04:22.268Z,22.09
2019-06-15T09:18:47.156Z,22.73
2019-06-15T09:19:47.117Z,22.62
2019-06-15T09:20:47.121Z,22.60
2019-06-15T09:21:47.095Z,22.91
2019-06-15T09:22:47.072Z,22.98
2019-06-15T09:23:47.058Z,22.80
2019-06-15T09:24:47.044Z,22.88
2019-06-15T09:25:47.029Z,22.88
2019-06-15T09:26:47.026Z,22.72
2019-06-15T09:27:47.002Z,22.80
2019-06-15T09:28:46.983Z,22.77
2019-06-15T09:29:46.972Z,22.90
2019-06-15T09:37:51.066Z,22.61
2019-06-15T09:38:51.034Z,22.55
2019-06-15T09:39:51.018Z,22.43
2019-06-15T09:40:51.005Z,22.30
2019-06-15T09:41:51.004Z,22.46
2019-06-15T09:42:50.975Z,22.80
2019-06-15T09:54:14.994Z,22.82
2019-06-15T09:55:14.964Z,22.73
2019-06-15T09:56:14.968Z,22.91
2019-06-15T09:57:14.948Z,22.95
2019-06-15T09:58:14.923Z,23.04
2019-06-15T09:59:25.720Z,23.07
2019-06-15T10:00:14.892Z,22.97
2019-06-15T10:01:14.880Z,22.82
2019-06-15T10:02:14.878Z,22.85
2019-06-15T10:03:14.850Z,22.68
2019-06-15T10:04:14.853Z,22.77
2019-06-15T10:05:14.822Z,23.09
2019-06-15T10:06:14.834Z,23.43
2019-06-15T10:07:15.039Z,23.36
2019-06-15T10:13:52.381Z,23.55
2019-06-15T10:14:52.352Z,23.46
2019-06-15T10:15:52.356Z,23.35
2019-06-15T10:16:52.342Z,23.36
2019-06-15T10:17:52.309Z,23.00
2019-06-15T10:18:52.378Z,22.88
2019-06-15T10:19:52.280Z,22.91
2019-06-15T10:20:52.274Z,22.79
2019-06-15T10:21:52.271Z,23.10
2019-06-15T10:22:52.243Z,23.31
2019-06-15T10:23:52.230Z,23.57
2019-06-15T10:24:52.217Z,23.61
2019-06-15T10:25:54.176Z,23.79
2019-06-15T10:26:52.216Z,23.83
2019-06-15T10:27:52.180Z,24.16
2019-06-15T10:28:52.168Z,23.72
2019-06-15T10:29:52.158Z,24.06
2019-06-15T10:30:52.142Z,24.16
2019-06-15T10:31:52.153Z,23.87
2019-06-15T10:32:52.117Z,23.58
2019-06-15T10:33:52.114Z,23.55
2019-06-15T10:34:52.102Z,23.43
2019-06-15T10:35:52.086Z,23.43
2019-06-15T10:36:52.083Z,23.17
2019-06-15T10:37:52.054Z,23.07
2019-06-15T10:38:52.042Z,22.92
2019-06-15T10:39:52.032Z,22.67
2019-06-15T10:40:52.017Z,22.57
2019-06-15T10:41:52.018Z,22.60
2019-06-15T10:42:51.993Z,22.72
2019-06-15T10:43:51.983Z,22.54
2019-06-15T10:44:52.037Z,22.40
2019-06-15T10:45:51.973Z,22.68
2019-06-15T10:46:51.960Z,22.60
2019-06-15T10:47:51.937Z,22.60
2019-06-15T10:48:51.920Z,22.76
2019-06-15T10:49:51.914Z,22.86
2019-06-15T10:50:51.897Z,22.77
2019-06-15T10:51:51.907Z,22.90
2019-06-15T10:52:51.895Z,22.98
2019-06-15T10:53:51.866Z,23.25
2019-06-15T10:54:51.848Z,23.27
2019-06-15T10:55:51.836Z,23.55
2019-06-15T10:56:51.820Z,23.79
2019-06-15T10:57:51.813Z,23.73
2019-06-15T10:58:51.810Z,23.39
2019-06-15T10:59:57.405Z,23.55
2019-06-15T11:00:51.771Z,23.55
2019-06-15T11:01:51.760Z,23.68
2019-06-15T11:02:51.762Z,23.57
2019-06-15T11:03:51.757Z,23.75
2019-06-15T11:04:51.727Z,23.73
2019-06-15T11:05:54.734Z,23.69
2019-06-15T11:06:51.704Z,23.76
2019-06-15T11:07:51.691Z,23.76
2019-06-15T11:08:51.697Z,23.50
2019-06-15T11:09:51.664Z,23.43
2019-06-15T11:10:51.658Z,23.53
2019-06-15T11:11:51.645Z,23.35
2019-06-15T11:12:51.652Z,23.35
2019-06-15T11:13:51.621Z,23.57
2019-06-15T11:14:51.653Z,23.57
2019-06-15T11:15:51.596Z,23.63
2019-06-15T11:16:51.588Z,24.32
2019-06-15T11:17:51.595Z,23.65
2019-06-15T11:18:51.560Z,23.42
2019-06-15T11:19:51.554Z,23.60
2019-06-15T11:20:51.541Z,23.65
2019-06-15T11:21:51.552Z,24.09
2019-06-15T11:22:51.545Z,23.58
2019-06-15T11:23:51.529Z,23.31
2019-06-15T11:24:51.494Z,23.28
2019-06-15T11:25:51.481Z,22.83
2019-06-15T11:26:51.470Z,22.75
2019-06-15T11:27:51.525Z,22.64
2019-06-15T11:28:51.445Z,22.58
2019-06-15T11:29:51.477Z,22.67
2019-06-15T11:30:51.512Z,22.73
2019-06-15T11:31:51.413Z,22.76
2019-06-15T11:32:51.419Z,22.65
2019-06-15T11:33:51.397Z,22.70
2019-06-15T11:34:51.382Z,22.77
2019-06-15T11:35:51.371Z,22.76
2019-06-15T11:36:51.354Z,22.77
2019-06-15T11:37:51.355Z,22.64
2019-06-15T11:38:51.374Z,22.45
2019-06-15T11:39:51.352Z,22.42
2019-06-15T11:40:51.311Z,22.40
2019-06-15T11:41:51.302Z,22.40
2019-06-15T11:42:51.294Z,22.42
2019-06-15T11:43:51.276Z,22.31
2019-06-15T11:44:51.255Z,22.24
2019-06-15T11:45:51.244Z,22.25
2019-06-15T11:46:51.230Z,22.22
2019-06-15T11:47:51.262Z,22.18
2019-06-15T11:48:51.214Z,22.30
2019-06-15T11:49:51.199Z,22.27
2019-06-15T11:50:51.180Z,22.27
2019-06-15T11:51:51.179Z,22.35
2019-06-15T11:52:51.171Z,22.40
2019-06-15T11:53:51.143Z,22.27
2019-06-15T11:54:51.130Z,22.30
2019-06-15T11:55:51.119Z,22.39
2019-06-15T11:56:51.112Z,22.35
2019-06-15T11:57:51.106Z,22.35
2019-06-15T11:58:51.081Z,22.20
2019-06-15T11:59:51.068Z,22.25
2019-06-15T12:00:51.054Z,22.40
2019-06-15T12:01:51.045Z,22.57
2019-06-15T12:02:51.062Z,22.68
2019-06-15T12:03:51.017Z,22.88
2019-06-15T12:04:58.434Z,22.79
2019-06-15T12:05:50.987Z,22.92
2019-06-15T12:06:50.974Z,23.05
2019-06-15T12:07:50.971Z,23.12
2019-06-15T12:08:50.970Z,23.40
2019-06-15T12:09:50.938Z,23.85
2019-06-15T12:10:50.925Z,24.10
2019-06-15T12:11:50.914Z,23.70
2019-06-15T12:12:50.898Z,23.76
2019-06-15T12:13:50.909Z,23.61
2019-06-15T12:14:50.878Z,23.72
2019-06-15T12:15:50.866Z,23.57
2019-06-15T12:16:50.857Z,23.38
2019-06-15T12:17:50.837Z,23.32
2019-06-15T12:18:50.875Z,23.07
2019-06-15T12:19:50.813Z,22.98
2019-06-15T12:20:50.802Z,22.94
2019-06-15T12:21:50.789Z,22.79
2019-06-15T12:22:50.776Z,22.79
2019-06-15T12:23:50.779Z,22.85
2019-06-15T12:24:50.756Z,22.79
2019-06-15T12:25:50.742Z,22.82
2019-06-15T12:26:50.727Z,23.05
2019-06-15T12:27:50.720Z,23.09
2019-06-15T12:28:50.750Z,23.23
2019-06-15T12:29:50.689Z,23.48
2019-06-15T12:30:50.679Z,23.69
2019-06-15T12:31:50.668Z,23.72
2019-06-15T12:32:50.654Z,23.80
2019-06-15T12:33:50.655Z,23.78
2019-06-15T12:34:50.629Z,23.58
2019-06-15T12:35:50.620Z,23.85
2019-06-15T12:36:50.609Z,23.53
2019-06-15T12:37:50.592Z,23.58
2019-06-15T12:38:50.626Z,23.95
2019-06-15T12:39:50.575Z,24.35
2019-06-15T12:40:50.566Z,24.58
2019-06-15T12:41:50.549Z,24.50
2019-06-15T12:42:50.540Z,24.61
2019-06-15T12:43:50.527Z,24.53
2019-06-15T12:44:50.526Z,24.37
2019-06-15T12:45:50.501Z,24.93
2019-06-15T12:46:50.488Z,25.87
2019-06-15T12:47:50.477Z,26.92
2019-06-15T12:48:50.465Z,27.41
2019-06-15T12:49:50.518Z,27.96
2019-06-15T12:50:50.449Z,27.21
2019-06-15T12:51:50.436Z,27.36
2019-06-15T12:52:50.426Z,27.37
2019-06-15T12:53:50.411Z,27.51
2019-06-15T12:54:50.413Z,27.50
2019-06-15T12:55:50.393Z,28.31
2019-06-15T12:56:50.380Z,27.41
2019-06-15T12:57:52.912Z,26.73
2019-06-15T12:58:50.364Z,26.77
2019-06-15T12:59:50.369Z,25.82
2019-06-15T13:01:02.382Z,26.09
2019-06-15T13:01:50.331Z,26.43
2019-06-15T13:02:50.321Z,26.82
2019-06-15T13:03:50.314Z,27.34
2019-06-15T13:04:50.303Z,27.79
2019-06-15T13:05:50.320Z,28.22
2019-06-15T13:06:50.282Z,28.85
2019-06-15T13:07:50.276Z,28.19
2019-06-15T13:08:50.266Z,28.27
2019-06-15T13:09:50.259Z,28.43
2019-06-15T13:10:50.258Z,28.22
2019-06-15T13:11:50.236Z,28.36
2019-06-15T13:12:50.229Z,27.31
2019-06-15T13:13:50.219Z,25.61
2019-06-15T13:14:50.285Z,25.47
2019-06-15T13:15:50.217Z,26.25
2019-06-15T13:16:50.201Z,26.63
2019-06-15T13:17:50.191Z,26.75
2019-06-15T13:18:50.176Z,27.22
2019-06-15T13:19:50.166Z,26.52
2019-06-15T13:20:50.171Z,26.06
2019-06-15T13:21:50.151Z,25.55
2019-06-15T13:22:50.150Z,25.03
2019-06-15T13:23:50.131Z,24.80
2019-06-15T13:24:50.128Z,24.30
2019-06-15T13:25:50.128Z,24.00
2019-06-15T13:26:50.105Z,23.87
2019-06-15T13:27:50.095Z,23.75
2019-06-15T13:28:51.247Z,23.42
2019-06-15T13:29:50.077Z,23.17
2019-06-15T13:30:50.081Z,23.02
2019-06-15T13:31:50.057Z,22.94
2019-06-15T13:32:50.045Z,22.85
2019-06-15T13:33:50.038Z,22.72
2019-06-15T13:34:50.027Z,22.51
2019-06-15T13:35:50.030Z,22.46
2019-06-15T13:36:50.005Z,22.47
2019-06-15T13:37:50.003Z,22.45
2019-06-15T13:38:49.987Z,22.35
2019-06-15T13:39:49.975Z,22.07
2019-06-15T13:40:49.992Z,22.06
2019-06-15T13:41:49.949Z,22.15
2019-06-15T13:42:49.940Z,22.31
2019-06-15T13:43:49.930Z,22.47
2019-06-15T13:44:49.915Z,22.57
2019-06-15T13:45:49.918Z,22.60
2019-06-15T13:46:49.894Z,23.87
2019-06-15T13:47:49.888Z,24.64
2019-06-15T13:48:49.869Z,25.20
2019-06-15T13:49:49.859Z,25.30
2019-06-15T13:50:49.858Z,26.58
2019-06-15T13:51:49.856Z,27.63
2019-06-15T13:52:49.823Z,27.96
2019-06-15T13:53:49.810Z,26.80
2019-06-15T13:54:49.806Z,26.15
2019-06-15T13:55:49.804Z,25.52
2019-06-15T13:56:49.775Z,24.95
2019-06-15T13:57:49.769Z,24.55
2019-06-15T13:58:49.771Z,24.49
2019-06-15T13:59:49.749Z,24.18
2019-06-15T14:00:49.751Z,24.00
2019-06-15T14:01:49.726Z,24.09
2019-06-15T14:02:49.720Z,23.88
2019-06-15T14:03:49.706Z,23.50
2019-06-15T14:04:49.697Z,23.51
2019-06-15T14:05:49.718Z,23.33
2019-06-15T14:06:49.675Z,23.25
2019-06-15T14:07:49.671Z,23.33
2019-06-15T14:08:49.650Z,23.39
2019-06-15T14:09:49.648Z,23.46
2019-06-15T14:10:49.632Z,23.63
2019-06-15T14:11:49.635Z,23.84
2019-06-15T14:12:49.606Z,24.18
2019-06-15T14:13:49.601Z,24.99
2019-06-15T14:14:49.584Z,25.91
2019-06-15T14:15:49.573Z,27.54
2019-06-15T14:16:49.577Z,28.66
2019-06-15T14:17:49.549Z,28.77
2019-06-15T14:18:49.539Z,28.40
2019-06-15T14:19:49.530Z,27.19
2019-06-15T14:20:49.518Z,27.85
2019-06-15T14:21:49.529Z,28.43
2019-06-15T14:22:49.499Z,27.78
2019-06-15T14:23:49.490Z,26.18
2019-06-15T14:24:49.479Z,27.41
2019-06-15T14:25:49.473Z,27.78
2019-06-15T14:26:49.476Z,29.26
2019-06-15T14:27:49.455Z,28.58
2019-06-15T14:28:49.466Z,29.37
2019-06-15T14:29:49.437Z,30.58
2019-06-15T14:30:49.427Z,29.11
2019-06-15T14:31:50.636Z,28.14
2019-06-15T14:32:49.415Z,29.53
2019-06-15T14:33:49.411Z,29.09
2019-06-15T14:34:49.396Z,28.88
2019-06-15T14:35:49.391Z,27.63
2019-06-15T14:36:49.386Z,27.62
2019-06-15T14:37:49.392Z,28.67
2019-06-15T14:38:49.372Z,30.10
2019-06-15T14:39:49.368Z,30.37
2019-06-15T14:40:49.362Z,31.28
2019-06-15T14:41:51.115Z,29.48
2019-06-15T14:42:49.347Z,29.79
2019-06-15T14:43:49.342Z,30.62
2019-06-15T14:44:49.331Z,30.24
2019-06-15T14:45:58.981Z,30.24
2019-06-15T14:46:49.337Z,31.17
2019-06-15T14:47:50.225Z,29.57
2019-06-15T14:48:49.308Z,29.42
2019-06-15T14:49:49.304Z,28.71
2019-06-15T14:50:49.298Z,29.79
2019-06-15T14:51:51.069Z,30.39
2019-06-15T14:52:49.297Z,30.54
2019-06-15T14:53:55.484Z,29.36
2019-06-15T14:54:49.279Z,29.06
2019-06-15T14:55:49.275Z,29.34
2019-06-15T14:56:49.283Z,29.60
2019-06-15T14:57:49.269Z,29.64
2019-06-15T14:58:49.263Z,29.73
2019-06-15T14:59:59.734Z,29.92
2019-06-15T15:00:49.253Z,29.51
2019-06-15T15:01:50.529Z,28.68
2019-06-15T15:02:49.243Z,28.78
2019-06-15T15:03:49.241Z,28.33
2019-06-15T15:04:49.237Z,28.66
2019-06-15T15:05:49.228Z,29.52
2019-06-15T15:06:49.240Z,29.80
2019-06-15T15:07:49.220Z,29.58
2019-06-15T15:08:49.224Z,30.55
2019-06-15T15:09:50.012Z,29.09
2019-06-15T15:10:49.213Z,27.82
2019-06-15T15:11:49.215Z,27.51
2019-06-15T15:12:49.200Z,26.37
2019-06-15T15:13:49.193Z,26.18
2019-06-15T15:14:49.190Z,25.77
2019-06-15T15:15:49.183Z,26.06
2019-06-15T15:16:49.196Z,25.88
2019-06-15T15:17:49.172Z,26.18
2019-06-15T15:18:49.168Z,26.72
2019-06-15T15:19:49.163Z,27.04
2019-06-15T15:20:49.174Z,27.04
2019-06-15T15:21:49.150Z,27.25
2019-06-15T15:22:49.160Z,27.75
2019-06-15T15:23:49.136Z,27.96
2019-06-15T15:24:49.130Z,27.85
2019-06-15T15:25:49.127Z,28.19
2019-06-15T15:26:49.153Z,27.13
2019-06-15T15:27:49.132Z,26.82
2019-06-15T15:28:49.124Z,26.30
2019-06-15T15:29:49.101Z,26.01
2019-06-15T15:30:49.094Z,26.17
2019-06-15T15:31:49.089Z,27.03
2019-06-15T15:32:49.095Z,27.22
2019-06-15T15:33:49.081Z,27.10
2019-06-15T15:34:49.068Z,26.88
2019-06-15T15:35:49.062Z,26.88
2019-06-15T15:36:49.060Z,27.10
2019-06-15T15:37:49.061Z,27.29
2019-06-15T15:38:49.042Z,27.29
2019-06-15T15:39:49.037Z,27.07
2019-06-15T15:40:49.028Z,26.88
2019-06-15T15:41:49.021Z,27.00
2019-06-15T15:42:49.029Z,27.13
2019-06-15T15:43:49.010Z,26.29
2019-06-15T15:44:49.001Z,25.79
2019-06-15T15:45:48.995Z,26.57
2019-06-15T15:46:48.988Z,26.80
2019-06-15T15:47:49.007Z,27.60
2019-06-15T15:48:48.976Z,27.19
2019-06-15T15:49:49.027Z,27.60
2019-06-15T15:50:49.032Z,27.51
2019-06-15T15:51:49.082Z,28.67
2019-06-15T15:52:49.043Z,29.31
2019-06-15T15:53:49.003Z,29.90
2019-06-15T15:54:49.053Z,30.05
2019-06-15T15:55:48.969Z,30.45
2019-06-15T15:56:49.023Z,30.22
2019-06-15T15:57:48.917Z,28.61
2019-06-15T15:58:49.005Z,29.02
2019-06-15T15:59:48.941Z,29.12
2019-06-15T16:00:48.938Z,29.11
2019-06-15T16:01:48.896Z,29.04
2019-06-15T16:02:52.049Z,28.67
2019-06-15T16:03:48.983Z,29.08
2019-06-15T16:04:48.886Z,28.96
2019-06-15T16:05:48.925Z,27.82
2019-06-15T16:06:48.979Z,27.29
2019-06-15T16:07:48.889Z,26.25
2019-06-15T16:08:49.607Z,27.24
2019-06-15T16:09:48.994Z,27.65
2019-06-15T16:10:48.958Z,27.93
2019-06-15T16:11:48.908Z,26.88
2019-06-15T16:12:48.919Z,27.47
2019-06-15T16:13:48.997Z,27.66
2019-06-15T16:14:48.899Z,27.19
2019-06-15T16:15:49.040Z,28.06
2019-06-15T16:16:48.829Z,28.66
2019-06-15T16:17:48.896Z,29.21
2019-06-15T16:18:48.909Z,29.43
2019-06-15T16:19:48.865Z,29.45
2019-06-15T16:20:48.939Z,29.58
2019-06-15T16:21:49.746Z,30.08
2019-06-15T16:22:48.917Z,29.85
2019-06-15T16:23:48.887Z,29.19
2019-06-15T16:24:48.793Z,29.89
2019-06-15T16:25:48.903Z,29.12
2019-06-15T16:26:48.875Z,29.58
2019-06-15T16:27:48.910Z,29.33
2019-06-15T16:28:48.901Z,28.78
2019-06-15T16:29:48.920Z,29.63
2019-06-15T16:31:04.770Z,30.11
2019-06-15T16:31:48.833Z,29.36
2019-06-15T16:33:00.389Z,28.09
2019-06-15T16:33:48.778Z,27.85
2019-06-15T16:34:48.799Z,28.34
2019-06-15T16:35:48.791Z,29.14
2019-06-15T16:36:48.784Z,30.10
2019-06-15T16:37:48.873Z,30.39
2019-06-15T16:38:48.742Z,30.55
2019-06-15T16:39:48.776Z,30.53
2019-06-15T16:40:48.745Z,28.78
2019-06-15T16:41:48.735Z,29.09
2019-06-15T16:42:48.741Z,28.15
2019-06-15T16:43:48.728Z,28.36
2019-06-15T16:44:48.742Z,27.88
2019-06-15T16:45:48.721Z,28.59
2019-06-15T16:46:48.722Z,29.16
2019-06-15T16:47:48.722Z,29.61
2019-06-15T16:48:48.717Z,29.79
2019-06-15T16:49:48.714Z,29.89
2019-06-15T16:50:48.722Z,30.10
2019-06-15T16:51:48.714Z,30.10
2019-06-15T16:52:48.712Z,29.73
2019-06-15T16:53:48.706Z,29.78
2019-06-15T16:54:48.702Z,30.15
2019-06-15T16:55:48.710Z,29.65
2019-06-15T16:56:48.703Z,28.30
2019-06-15T16:57:48.705Z,28.21
2019-06-15T16:58:48.693Z,28.12
2019-06-15T16:59:49.619Z,28.58
2019-06-15T17:00:48.705Z,28.06
2019-06-15T17:01:48.683Z,29.00
2019-06-15T17:02:48.684Z,30.00
2019-06-15T17:03:48.692Z,30.61
2019-06-15T17:04:48.696Z,31.02
2019-06-15T17:05:48.675Z,30.55
2019-06-15T17:06:48.671Z,30.80
2019-06-15T17:07:48.744Z,29.57
2019-06-15T17:08:48.668Z,29.15
2019-06-15T17:09:48.666Z,28.83
2019-06-15T17:10:48.679Z,29.04
2019-06-15T17:11:48.660Z,29.18
2019-06-15T17:12:48.656Z,29.16
2019-06-15T17:13:48.659Z,28.56
2019-06-15T17:14:48.669Z,29.11
2019-06-15T17:15:48.649Z,28.71
2019-06-15T17:16:48.656Z,28.93
2019-06-15T17:17:48.641Z,29.09
2019-06-15T17:18:48.647Z,28.67
2019-06-15T17:19:48.665Z,27.65
2019-06-15T17:20:48.650Z,27.14
2019-06-15T17:21:48.632Z,26.91
2019-06-15T17:22:48.639Z,26.95
2019-06-15T17:23:48.646Z,27.03
2019-06-15T17:24:48.616Z,27.39
2019-06-15T17:25:48.624Z,27.77
2019-06-15T17:26:48.612Z,28.17
2019-06-15T17:27:48.609Z,27.96
2019-06-15T17:28:48.603Z,27.88
2019-06-15T17:29:48.598Z,28.24